首页
METAR-TAF:

METAR-TAF

机场 :

Pensacola Regional Airport

彭萨科拉, 佛罗里达州, 美国

纬度: 30-28-41N, 经度: 087-11-13W, 海拔: 36米

当前天气观测

该预报发布于57分钟前的01:53 UTC
风速9节,风向
温度 8°C
湿度 57%
气压 1031 hPa
能見度: 16.1公里
天空无云

METAR: KPNS 220153Z 36009KT 10SM CLR 08/00 A3046 RMK AO2 SLP317 T00830000

时间: 20:50 (02:50 UTC)

预报

该预报发布于3小时和21分钟前的23:29 UTC
预报有效从22日的 00点(UTC)到 22日的 24点(UTC)
风速6节,风向
能見度: 10公里
天空无云
从 22日的 1300点(UTC)
风速4节,风向东北
能見度: 10公里
天空无云

TAF: KPNS 212329Z 2200/2224 01006KT P6SM SKC FM221300 05004KT P6SM SKC

超过4000个机场的气象观测和天气预报(METAR&TAF报告)。

可查询的气象台以黄色和红色小点在地图上表示。

将鼠标移到小点上方,可查看气象台名称。

然后点击查看天气观测和预报。

如需切换地图:点击带黑十字的绿色按钮放大地图;点击带横线的绿色按钮缩小地图;或者点击绿色箭头查看邻近地区的地图。


METAR-TAF: